Map

Track Data

SID SEASON NUMBER BASIN SUBBASIN NAME ISO_TIME NATURE LAT LON WMO_WIND WMO_PRES WMO_AGENCY TRACK_TYPE DIST2LAND LANDFALL IFLAG USA_AGENCY USA_ATCF_ID USA_LAT USA_LON USA_RECORD USA_STATUS USA_WIND USA_PRES USA_SSHS USA_R34_NE USA_R34_SE USA_R34_SW USA_R34_NW USA_R50_NE USA_R50_SE USA_R50_SW USA_R50_NW USA_R64_NE USA_R64_SE USA_R64_SW USA_R64_NW USA_POCI USA_ROCI USA_RMW USA_EYE TOKYO_LAT TOKYO_LON TOKYO_GRADE TOKYO_WIND TOKYO_PRES TOKYO_R50_DIR TOKYO_R50_LONG TOKYO_R50_SHORT TOKYO_R30_DIR TOKYO_R30_LONG TOKYO_R30_SHORT TOKYO_LAND CMA_LAT CMA_LON CMA_CAT CMA_WIND CMA_PRES HKO_LAT HKO_LON HKO_CAT HKO_WIND HKO_PRES NEWDELHI_LAT NEWDELHI_LON NEWDELHI_GRADE NEWDELHI_WIND NEWDELHI_PRES NEWDELHI_CI NEWDELHI_DP NEWDELHI_POCI REUNION_LAT REUNION_LON REUNION_TYPE REUNION_WIND REUNION_PRES REUNION_TNUM REUNION_CI REUNION_RMW REUNION_R34_NE REUNION_R34_SE REUNION_R34_SW REUNION_R34_NW REUNION_R50_NE REUNION_R50_SE REUNION_R50_SW REUNION_R50_NW REUNION_R64_NE REUNION_R64_SE REUNION_R64_SW REUNION_R64_NW BOM_LAT BOM_LON BOM_TYPE BOM_WIND BOM_PRES BOM_TNUM BOM_CI BOM_RMW BOM_R34_NE BOM_R34_SE BOM_R34_SW BOM_R34_NW BOM_R50_NE BOM_R50_SE BOM_R50_SW BOM_R50_NW BOM_R64_NE BOM_R64_SE BOM_R64_SW BOM_R64_NW BOM_ROCI BOM_POCI BOM_EYE BOM_POS_METHOD BOM_PRES_METHOD NADI_LAT NADI_LON NADI_CAT NADI_WIND NADI_PRES WELLINGTON_LAT WELLINGTON_LON WELLINGTON_WIND WELLINGTON_PRES DS824_LAT DS824_LON DS824_STAGE DS824_WIND DS824_PRES TD9636_LAT TD9636_LON TD9636_STAGE TD9636_WIND TD9636_PRES TD9635_LAT TD9635_LON TD9635_WIND TD9635_PRES TD9635_ROCI NEUMANN_LAT NEUMANN_LON NEUMANN_CLASS NEUMANN_WIND NEUMANN_PRES MLC_LAT MLC_LON MLC_CLASS MLC_WIND MLC_PRES USA_GUST BOM_GUST BOM_GUST_PER REUNION_GUST REUNION_GUST_PER USA_SEAHGT USA_SEARAD_NE USA_SEARAD_SE USA_SEARAD_SW USA_SEARAD_NW STORM_SPEED STORM_DIR
1958095S12067 1958 28 SI MM NOT_NAMED 1958-04-04 18:00:00 TS -11.8000 66.6000 main 1329 1321 O________OO___ jtwc_sh SH281958 -11.8000 66.6000 -1 -11.8000 66.6000 TC -11.8000 66.6000 7 2 143
1958095S12067 1958 28 SI MM NOT_NAMED 1958-04-04 21:00:00 TS -11.8899 66.6677 main 1328 1313 P________PP___ SH281958 -11.8975 66.7175 -1 -11.8975 66.7175 TC -11.8745 66.5681 7 2 168
1958095S12067 1958 28 SI MM NOT_NAMED 1958-04-05 00:00:00 TS -11.9898 66.6297 main 1313 1290 O________OP___ jtwc_sh SH281958 -12.0000 66.7000 -1 -12.0000 66.7000 TC -11.9693 66.4891 7 3 229
1958095S12067 1958 28 SI MM NOT_NAMED 1958-04-05 03:00:00 TS -12.1148 66.4034 main 1290 1235 P________PP___ SH281958 -12.1199 66.4473 -1 -12.1199 66.4473 TC -12.1044 66.3155 7 8 240
1958095S12067 1958 28 SI MM NOT_NAMED 1958-04-05 06:00:00 TS -12.3923 65.9308 reunion main 1227 1166 O____O___OO___ jtwc_sh SH281958 -12.3000 66.0000 -1 -13.5000 65.1000 99 9.90000 -12.3000 66.0000 TC 35 -12.3000 66.0000 2 12 240
1958095S12067 1958 28 SI MM NOT_NAMED 1958-04-05 09:00:00 TS -12.7118 65.3632 main 1166 1097 P____P___PP___ SH281958 -12.5775 65.4450 -1 -13.5390 64.7375 99 -12.5775 65.4450 TC 35 -12.5666 65.5123 2 13 241
1958095S12067 1958 28 SI MM NOT_NAMED 1958-04-05 12:00:00 TS -13.0302 64.7392 main 1089 1028 O____P___OP___ jtwc_sh SH281958 -12.9000 64.8000 -1 -13.5800 64.3714 99 -12.9000 64.8000 TC 35 -12.8784 64.8935 2 14 243
1958095S12067 1958 28 SI MM NOT_NAMED 1958-04-05 15:00:00 TS -13.3140 64.1253 main 1021 969 P____P___PP___ SH281958 -13.2149 64.1500 -1 -13.6253 63.9982 99 -13.2149 64.1500 TC 35 -13.2009 64.2028 2 13 246
1958095S12067 1958 28 SI MM NOT_NAMED 1958-04-05 18:00:00 TS -13.5443 63.5286 main 962 911 O____P___OO___ jtwc_sh SH281958 -13.5000 63.5000 -1 -13.6773 63.6143 99 -13.5000 63.5000 TC 35 -13.5000 63.5000 2 12 250
1958095S12067 1958 28 SI MM NOT_NAMED 1958-04-05 21:00:00 TS -13.7232 62.9634 main 911 854 P____P___PP___ SH281958 -13.7147 62.8997 -1 -13.7384 63.2162 99 -13.7147 62.8997 TC 35 -13.7248 62.8380 2 12 253
1958095S12067 1958 28 SI MM NOT_NAMED 1958-04-06 00:00:00 TS -13.8834 62.3956 main 854 809 O____P___OP___ jtwc_sh SH281958 -13.9000 62.3000 -1 -13.8111 62.8002 99 -13.9000 62.3000 TC 35 -13.9227 62.1820 2 12 254
1958095S12067 1958 28 SI MM NOT_NAMED 1958-04-06 03:00:00 TS -14.0480 61.7944 main 809 762 P____P___PP___ SH281958 -14.0926 61.6274 -1 -13.8975 62.3627 99 -14.0926 61.6274 TC 35 -14.1093 61.5600 2 12 253
1958095S12067 1958 28 SI MM NOT_NAMED 1958-04-06 06:00:00 TS -14.2250 61.2250 reunion main 757 717 O____O___OO___ jtwc_sh SH281958 -14.3000 61.0000 -1 -14.0000 61.9000 99 9.90000 -14.3000 61.0000 TC 35 -14.3000 61.0000 2 11 249
1958095S12067 1958 28 SI MM NOT_NAMED 1958-04-06 09:00:00 TS -14.4393 60.7419 main 712 674 P____P___PP___ SH281958 -14.5498 60.5050 -1 -14.1205 61.4102 99 -14.5498 60.5050 TC 35 -14.5371 60.5473 2 10 244
1958095S12067 1958 28 SI MM NOT_NAMED 1958-04-06 12:00:00 TS -14.6596 60.3134 main 664 626 O____P___OP___ jtwc_sh SH281958 -14.8000 60.1000 -1 -14.2596 60.8989 99 -14.8000 60.1000 TC 35 -14.7786 60.1548 2 9 242
1958095S12067 1958 28 SI MM NOT_NAMED 1958-04-06 15:00:00 TS -14.8670 59.9183 main 626 601 P____P___PP___ SH281958 -15.0223 59.7574 -1 -14.4175 60.3737 99 -15.0223 59.7574 TC 35 -15.0059 59.7849 2 9 243
1958095S12067 1958 28 SI MM NOT_NAMED 1958-04-06 18:00:00 TS -15.0486 59.5105 main 601 565 O____P___OO___ jtwc_sh SH281958 -15.2000 59.4000 -1 -14.5943 59.8419 99 -15.2000 59.4000 TC 35 -15.2000 59.4000 2 9 250
1958095S12067 1958 28 SI MM NOT_NAMED 1958-04-06 21:00:00 TS -15.1841 59.0177 main 565 543 P____P___PP___ SH281958 -15.3151 58.9149 -1 -14.7906 59.3111 99 -15.3151 58.9149 TC 35 -15.3158 58.9297 2 10 255
1958095S12067 1958 28 SI MM NOT_NAMED 1958-04-07 00:00:00 TS -15.3017 58.5076 main 543 527 O____P___OP___ jtwc_sh SH281958 -15.4000 58.4000 -1 -15.0066 58.7889 99 -15.4000 58.4000 TC 35 -15.4002 58.4416 2 10 256
1958095S12067 1958 28 SI MM NOT_NAMED 1958-04-07 03:00:00 TS -15.4281 58.0276 main 526 503 P____P___PP___ SH281958 -15.4924 57.9349 -1 -15.2429 58.2826 99 -15.4924 57.9349 TC 50 -15.4845 57.9578 2 9 253
1958095S12067 1958 28 SI MM NOT_NAMED 1958-04-07 06:00:00 TS -15.5750 57.5750 reunion main 503 492 O____O___OO___ jtwc_sh SH281958 -15.6000 57.5000 -1 -15.5000 57.8000 99 9.90000 -15.6000 57.5000 TC 65 -15.6000 57.5000 4 9 250
1958095S12067 1958 28 SI MM NOT_NAMED 1958-04-07 09:00:00 TS -15.7385 57.1490 main 494 474 P____P___PP___ SH281958 -15.7199 57.0849 -1 -15.7540 57.3466 99 -15.7199 57.0849 TC 65 -15.7604 57.0798 4 9 245
1958095S12067 1958 28 SI MM NOT_NAMED 1958-04-07 12:00:00 TS -15.9472 56.7504 main 475 451 O____P___OP___ jtwc_sh SH281958 -15.9000 56.7000 -1 -16.0291 56.9120 99 -15.9000 56.7000 TC 65 -15.9597 56.6897 4 9 237
1958095S12067 1958 28 SI MM NOT_NAMED 1958-04-07 15:00:00 TS -16.2135 56.3739 main 451 429 P____P___PP___ SH281958 -16.1624 56.3349 -1 -16.3251 56.4961 99 -16.1624 56.3349 TC 65 -16.2042 56.3297 4 9 230
1958095S12067 1958 28 SI MM NOT_NAMED 1958-04-07 18:00:00 TS -16.5353 56.0248 main 432 405 O____P___OO___ jtwc_sh SH281958 -16.5000 56.0000 -1 -16.6413 56.0991 99 -16.5000 56.0000 TC 65 -16.5000 56.0000 4 10 224
1958095S12067 1958 28 SI MM NOT_NAMED 1958-04-07 21:00:00 TS -16.9002 55.6897 main 405 383 P____P___PP___ SH281958 -16.8850 55.6850 -1 -16.9774 55.7209 99 -16.8850 55.6850 TC 65 -16.8536 55.6681 4 10 219
1958095S12067 1958 28 SI MM NOT_NAMED 1958-04-08 00:00:00 TS -17.2969 55.3824 main 383 368 O____P___OP___ jtwc_sh SH281958 -17.3000 55.4000 -1 -17.3328 55.3616 99 -17.3000 55.4000 TC 65 -17.2549 55.3680 4 10 216
1958095S12067 1958 28 SI MM NOT_NAMED 1958-04-08 03:00:00 TS -17.6965 55.0925 main 368 327 P____P___PP___ SH281958 -17.7000 55.1200 -1 -17.7072 55.0213 99 -17.7000 55.1200 TC 65 -17.6787 55.1088 4 10 212
1958095S12067 1958 28 SI MM NOT_NAMED 1958-04-08 06:00:00 TS -18.1000 54.8500 reunion main 327 286 O____O___OO___ jtwc_sh SH281958 -18.1000 54.9000 -1 -18.1000 54.7000 99 9.90000 -18.1000 54.9000 TC 65 -18.1000 54.9000 4 9 207
1958095S12067 1958 28 SI MM NOT_NAMED 1958-04-08 09:00:00 TS -18.4880 54.6735 main 286 249 P____P___PP___ SH281958 -18.5074 54.7773 -1 -18.4593 54.3743 99 -18.5074 54.7773 TC 65 -18.4778 54.7650 4 8 201
1958095S12067 1958 28 SI MM NOT_NAMED 1958-04-08 12:00:00 TS -18.8710 54.5361 main 249 222 O____P___OP___ jtwc_sh SH281958 -18.9000 54.7000 -1 -18.8345 54.0681 99 -18.9000 54.7000 TC 65 -18.8496 54.6761 4 8 199
1958095S12067 1958 28 SI MM NOT_NAMED 1958-04-08 15:00:00 TS -19.2418 54.4024 main 222 188 P____P___PP___ SH281958 -19.2575 54.6148 -1 -19.2306 53.7807 99 -19.2575 54.6148 TC 65 -19.2216 54.5993 4 8 200
1958095S12067 1958 28 SI MM NOT_NAMED 1958-04-08 18:00:00 TS -19.6132 54.2528 main 188 167 O____P___OO___ jtwc_sh SH281958 -19.6000 54.5000 -1 -19.6526 53.5114 99 -19.6000 54.5000 TC 65 -19.6000 54.5000 4 8 204
1958095S12067 1958 28 SI MM NOT_NAMED 1958-04-08 21:00:00 TS -19.9748 54.0573 main 167 160 P____P___PP___ SH281958 -19.9350 54.3149 -1 -20.1055 53.2595 99 -19.9350 54.3149 TC 65 -19.9238 54.3399 4 8 207
1958095S12067 1958 28 SI MM NOT_NAMED 1958-04-09 00:00:00 TS -20.3649 53.8437 main 165 159 O____P___OP___ jtwc_sh SH281958 -20.3000 54.1000 -1 -20.5943 53.0241 99 -20.3000 54.1000 TC 65 -20.2651 54.1507 4 9 205
1958095S12067 1958 28 SI MM NOT_NAMED 1958-04-09 03:00:00 TS -20.7945 53.6425 main 169 166 P____P___PP___ SH281958 -20.6899 53.9145 -1 -21.1241 52.8046 99 -20.6899 53.9145 TC 65 -20.6738 53.9363 4 10 202
1958095S12067 1958 28 SI MM NOT_NAMED 1958-04-09 06:00:00 TS -21.3250 53.4250 reunion main 187 187 O____O___OO___ jtwc_sh SH281958 -21.2000 53.7000 -1 -21.7000 52.6000 99 9.90000 -21.2000 53.7000 TC 65 -21.2000 53.7000 4 13 201
1958095S12067 1958 28 SI MM NOT_NAMED 1958-04-09 09:00:00 TS -22.0015 53.1543 main 229 229 P____P___PP___ SH281958 -21.8826 53.4076 -1 -22.3251 52.4094 99 -21.8826 53.4076 TC 65 -21.9156 53.3928 4 16 199
1958095S12067 1958 28 SI MM NOT_NAMED 1958-04-09 12:00:00 TS -22.7853 52.8758 main 298 298 O____P___OP___ jtwc_sh SH281958 -22.7000 53.1000 -1 -22.9952 52.2308 99 -22.7000 53.1000 TC 65 -22.7459 53.0722 4 17 197
1958095S12067 1958 28 SI MM NOT_NAMED 1958-04-09 15:00:00 TS -23.6330 52.6195 main 378 378 P____P___PP___ SH281958 -23.6000 52.8129 -1 -23.7040 52.0623 99 -23.6000 52.8129 TC 65 -23.6282 52.7901 4 18 194
1958095S12067 1958 28 SI MM NOT_NAMED 1958-04-09 18:00:00 TS -24.4862 52.4254 main 464 464 O____P___OO___ jtwc_sh SH281958 -24.5000 52.6000 -1 -24.4450 51.9018 99 -24.5000 52.6000 TC 65 -24.5000 52.6000 4 17 190
1958095S12067 1958 28 SI MM NOT_NAMED 1958-04-09 21:00:00 TS -25.2673 52.3137 main 506 506 P____P___PP___ SH281958 -25.2724 52.4825 -1 -25.2117 51.7473 99 -25.2724 52.4825 TC 65 -25.3129 52.5423 4 15 184
1958095S12067 1958 28 SI MM NOT_NAMED 1958-04-10 00:00:00 TS -26.0174 52.2985 main 529 529 O____P___OP___ jtwc_sh SH281958 -26.0000 52.5000 -1 -25.9976 51.5969 99 -26.0000 52.5000 TC 65 -26.0719 52.5971 4 15 178
1958095S12067 1958 28 SI MM NOT_NAMED 1958-04-10 03:00:00 TS -26.7691 52.3738 main 566 566 P____P___PP___ SH281958 -26.7427 52.6591 -1 -26.7960 51.4484 99 -26.7427 52.6591 TC 65 -26.7950 52.7286 4 15 173
1958095S12067 1958 28 SI MM NOT_NAMED 1958-04-10 06:00:00 TS -27.5250 52.5000 reunion main 606 O____O___OO___ jtwc_sh SH281958 -27.5000 52.9000 -1 -27.6000 51.3000 99 9.90000 -27.5000 52.9000 TC 65 -27.5000 52.9000 4 15 172

About IBTrACS Database

This database is a web-friendly format of International Best Track Archive for Climate Stewardship (IBTrACS), a global best track data archive curated by NOAA dating back to 1842.

Updated: 2021-11-26